Cancún International Airport
MMUN : now visible

Airfield :











YOU CAN JOIN US ON...

 
LOGIN :

Register | Disclaimer

   EN    FR    IT 

 









Legend :    VFR   Marginal VFR   IFR   Intensive IFR   Very Intensive IFR
Visi :
Ceiling :
>= 8 km
>= 3000ft
5 to 8 km
1000 to 3000 ft
1500m to 5 km
500 to 1000 ft
800 to 1500m
200 to 500 ft
< 800m
< 200 ft
Symbols :   Thunderstorms  Fog  Heavy snow  Heavy precipitations  Wind > 20 kt






- Airport Elevation : 20 ft
- IATA code : CUN


MMUN - Cancún International

CURRENT METAR :
  • 281544Z 13013KT 7SM SCT015 BKN250 31/25 A2999 RMK 8/108 MDT CU

EXPIRED METARs :
  • 281445Z 12015KT 7SM SCT015 BKN250 30/25 A3001 RMK SLP161 52009 926 8/108 MDT CU
  • 281342Z 12013KT 7SM SCT015 BKN250 30/25 A2999 RMK 8/108 MDT CU

TAF TAF MMUN
Valid from the 28 at 12:00 until the 29 at 18:00 UTC


280958Z 2812/2918 11010KT P6SM SCT015 TX32/2817Z TN27/2812Z
FM281700 13015KT P6SM BKN015 BKN250
FM290000 10005KT P6SM SCT015 BKN250
FM291700 10010KT P6SM BKN015 BKN250
MMFR FIR / North America



MET'MAP, your aeronautical weather chart ! - Copyright ORBIFLY December 2007 - Disclaimer

ORBIFLY MET'MAP TEAM :

Programming & Development : Alexandra Zaïnal
Concept & original design : Baudouin d'Aumeries
Assistance for programming : Marc-Olivier Méhu
Technical & hardware support : Manuel Goepfert

Contact : metmap@orbifly.com




SOURCES & CREDITS :

   NOAA       Earth
Advisory